sensor_id;sensor_type;location;lat;lon;timestamp;P1;durP1;ratioP1;P2;durP2;ratioP2
15287;SDS011;7745;48.708;9.026;2023-07-31T00:02:18;4.80;;;1.90;;
15287;SDS011;7745;48.708;9.026;2023-07-31T00:04:45;3.77;;;1.77;;
15287;SDS011;7745;48.708;9.026;2023-07-31T00:07:12;4.37;;;2.03;;
15287;SDS011;7745;48.708;9.026;2023-07-31T00:09:38;4.57;;;1.80;;
15287;SDS011;7745;48.708;9.026;2023-07-31T00:12:05;4.03;;;1.80;;
15287;SDS011;7745;48.708;9.026;2023-07-31T00:14:34;2.87;;;1.50;;
15287;SDS011;7745;48.708;9.026;2023-07-31T00:17:01;5.47;;;1.63;;
15287;SDS011;7745;48.708;9.026;2023-07-31T00:19:28;4.67;;;1.90;;
15287;SDS011;7745;48.708;9.026;2023-07-31T00:21:54;5.60;;;2.10;;
15287;SDS011;7745;48.708;9.026;2023-07-31T00:24:21;2.70;;;1.50;;
15287;SDS011;7745;48.708;9.026;2023-07-31T00:26:48;5.40;;;1.80;;
15287;SDS011;7745;48.708;9.026;2023-07-31T00:29:15;3.53;;;1.83;;
15287;SDS011;7745;48.708;9.026;2023-07-31T00:31:43;5.93;;;1.93;;
15287;SDS011;7745;48.708;9.026;2023-07-31T00:34:09;4.13;;;1.90;;
15287;SDS011;7745;48.708;9.026;2023-07-31T00:36:36;7.03;;;1.77;;
15287;SDS011;7745;48.708;9.026;2023-07-31T00:39:03;3.60;;;2.00;;
15287;SDS011;7745;48.708;9.026;2023-07-31T00:41:30;2.27;;;1.47;;
15287;SDS011;7745;48.708;9.026;2023-07-31T00:43:57;5.67;;;1.83;;
15287;SDS011;7745;48.708;9.026;2023-07-31T00:46:24;3.67;;;1.90;;
15287;SDS011;7745;48.708;9.026;2023-07-31T00:48:52;2.83;;;1.50;;
15287;SDS011;7745;48.708;9.026;2023-07-31T00:51:19;4.67;;;2.00;;
15287;SDS011;7745;48.708;9.026;2023-07-31T00:53:46;4.43;;;1.83;;
15287;SDS011;7745;48.708;9.026;2023-07-31T00:56:13;5.27;;;2.07;;
15287;SDS011;7745;48.708;9.026;2023-07-31T00:58:41;3.77;;;1.63;;
15287;SDS011;7745;48.708;9.026;2023-07-31T01:01:08;3.40;;;1.80;;
15287;SDS011;7745;48.708;9.026;2023-07-31T01:03:35;3.40;;;1.80;;
15287;SDS011;7745;48.708;9.026;2023-07-31T01:06:07;2.37;;;1.50;;
15287;SDS011;7745;48.708;9.026;2023-07-31T01:08:42;4.07;;;1.70;;
15287;SDS011;7745;48.708;9.026;2023-07-31T01:11:19;5.13;;;1.77;;
15287;SDS011;7745;48.708;9.026;2023-07-31T01:13:51;2.70;;;1.70;;
15287;SDS011;7745;48.708;9.026;2023-07-31T01:16:19;5.07;;;2.03;;
15287;SDS011;7745;48.708;9.026;2023-07-31T01:18:46;3.53;;;2.00;;
15287;SDS011;7745;48.708;9.026;2023-07-31T01:21:18;3.97;;;1.77;;
15287;SDS011;7745;48.708;9.026;2023-07-31T01:24:07;2.90;;;1.63;;
15287;SDS011;7745;48.708;9.026;2023-07-31T01:27:01;6.37;;;2.10;;
15287;SDS011;7745;48.708;9.026;2023-07-31T01:29:34;4.97;;;1.80;;
15287;SDS011;7745;48.708;9.026;2023-07-31T01:32:04;3.70;;;1.83;;
15287;SDS011;7745;48.708;9.026;2023-07-31T01:34:33;5.10;;;2.37;;
15287;SDS011;7745;48.708;9.026;2023-07-31T01:37:02;4.13;;;1.77;;
15287;SDS011;7745;48.708;9.026;2023-07-31T01:39:30;4.57;;;1.67;;
15287;SDS011;7745;48.708;9.026;2023-07-31T01:41:56;9.17;;;2.33;;
15287;SDS011;7745;48.708;9.026;2023-07-31T01:44:24;4.17;;;1.90;;
15287;SDS011;7745;48.708;9.026;2023-07-31T01:46:51;5.90;;;1.80;;
15287;SDS011;7745;48.708;9.026;2023-07-31T01:49:18;4.33;;;1.90;;
15287;SDS011;7745;48.708;9.026;2023-07-31T01:51:45;3.50;;;1.47;;
15287;SDS011;7745;48.708;9.026;2023-07-31T01:54:11;3.47;;;1.80;;
15287;SDS011;7745;48.708;9.026;2023-07-31T01:56:38;7.90;;;1.97;;
15287;SDS011;7745;48.708;9.026;2023-07-31T01:59:06;2.37;;;1.60;;
15287;SDS011;7745;48.708;9.026;2023-07-31T02:01:33;4.87;;;1.87;;
15287;SDS011;7745;48.708;9.026;2023-07-31T02:04:00;7.27;;;1.90;;
15287;SDS011;7745;48.708;9.026;2023-07-31T02:06:26;5.00;;;1.80;;
15287;SDS011;7745;48.708;9.026;2023-07-31T02:08:53;4.57;;;1.80;;
15287;SDS011;7745;48.708;9.026;2023-07-31T02:11:20;4.97;;;1.80;;
15287;SDS011;7745;48.708;9.026;2023-07-31T02:13:47;4.40;;;1.70;;
15287;SDS011;7745;48.708;9.026;2023-07-31T02:16:15;3.30;;;1.77;;
15287;SDS011;7745;48.708;9.026;2023-07-31T02:18:41;6.40;;;1.90;;
15287;SDS011;7745;48.708;9.026;2023-07-31T02:21:08;5.20;;;1.97;;
15287;SDS011;7745;48.708;9.026;2023-07-31T02:23:35;2.83;;;1.77;;
15287;SDS011;7745;48.708;9.026;2023-07-31T02:26:02;7.17;;;2.23;;
15287;SDS011;7745;48.708;9.026;2023-07-31T02:28:29;2.90;;;1.97;;
15287;SDS011;7745;48.708;9.026;2023-07-31T02:30:56;3.53;;;1.70;;
15287;SDS011;7745;48.708;9.026;2023-07-31T02:33:24;2.87;;;1.77;;
15287;SDS011;7745;48.708;9.026;2023-07-31T02:35:51;5.50;;;2.03;;
15287;SDS011;7745;48.708;9.026;2023-07-31T02:38:17;3.33;;;1.93;;
15287;SDS011;7745;48.708;9.026;2023-07-31T02:40:44;3.20;;;1.70;;
15287;SDS011;7745;48.708;9.026;2023-07-31T02:43:11;8.23;;;2.30;;
15287;SDS011;7745;48.708;9.026;2023-07-31T02:45:38;3.30;;;1.90;;
15287;SDS011;7745;48.708;9.026;2023-07-31T02:48:04;3.53;;;1.63;;
15287;SDS011;7745;48.708;9.026;2023-07-31T02:50:33;4.03;;;1.77;;
15287;SDS011;7745;48.708;9.026;2023-07-31T02:52:59;2.83;;;1.70;;
15287;SDS011;7745;48.708;9.026;2023-07-31T02:55:26;6.07;;;1.90;;
15287;SDS011;7745;48.708;9.026;2023-07-31T02:57:54;4.17;;;1.43;;
15287;SDS011;7745;48.708;9.026;2023-07-31T03:00:20;5.83;;;1.83;;
15287;SDS011;7745;48.708;9.026;2023-07-31T03:02:47;3.30;;;1.97;;
15287;SDS011;7745;48.708;9.026;2023-07-31T03:05:14;4.37;;;1.80;;
15287;SDS011;7745;48.708;9.026;2023-07-31T03:07:42;5.73;;;1.90;;
15287;SDS011;7745;48.708;9.026;2023-07-31T03:10:09;2.60;;;1.53;;
15287;SDS011;7745;48.708;9.026;2023-07-31T03:12:36;3.43;;;1.60;;
15287;SDS011;7745;48.708;9.026;2023-07-31T03:15:03;2.13;;;1.67;;
15287;SDS011;7745;48.708;9.026;2023-07-31T03:17:30;7.03;;;2.17;;
15287;SDS011;7745;48.708;9.026;2023-07-31T03:19:57;3.93;;;2.43;;
15287;SDS011;7745;48.708;9.026;2023-07-31T03:22:23;7.40;;;1.53;;
15287;SDS011;7745;48.708;9.026;2023-07-31T03:24:51;5.40;;;1.90;;
15287;SDS011;7745;48.708;9.026;2023-07-31T03:27:18;3.33;;;1.70;;
15287;SDS011;7745;48.708;9.026;2023-07-31T03:29:45;5.53;;;1.87;;
15287;SDS011;7745;48.708;9.026;2023-07-31T03:32:12;2.90;;;1.50;;
15287;SDS011;7745;48.708;9.026;2023-07-31T03:34:39;4.53;;;1.87;;
15287;SDS011;7745;48.708;9.026;2023-07-31T03:37:05;4.53;;;1.70;;
15287;SDS011;7745;48.708;9.026;2023-07-31T03:39:34;4.10;;;1.90;;
15287;SDS011;7745;48.708;9.026;2023-07-31T03:42:02;2.90;;;1.70;;
15287;SDS011;7745;48.708;9.026;2023-07-31T03:44:29;3.90;;;1.60;;
15287;SDS011;7745;48.708;9.026;2023-07-31T03:46:56;4.90;;;1.90;;
15287;SDS011;7745;48.708;9.026;2023-07-31T03:49:23;4.37;;;1.80;;
15287;SDS011;7745;48.708;9.026;2023-07-31T03:51:49;6.47;;;2.20;;
15287;SDS011;7745;48.708;9.026;2023-07-31T03:54:16;4.87;;;1.80;;
15287;SDS011;7745;48.708;9.026;2023-07-31T03:56:43;3.97;;;1.70;;
15287;SDS011;7745;48.708;9.026;2023-07-31T03:59:11;6.67;;;2.13;;
15287;SDS011;7745;48.708;9.026;2023-07-31T04:01:38;3.73;;;2.13;;
15287;SDS011;7745;48.708;9.026;2023-07-31T04:04:05;6.50;;;1.87;;
15287;SDS011;7745;48.708;9.026;2023-07-31T04:06:31;2.93;;;1.90;;
15287;SDS011;7745;48.708;9.026;2023-07-31T04:08:58;6.60;;;2.23;;
15287;SDS011;7745;48.708;9.026;2023-07-31T04:11:25;6.57;;;2.10;;
15287;SDS011;7745;48.708;9.026;2023-07-31T04:13:52;3.30;;;1.67;;
15287;SDS011;7745;48.708;9.026;2023-07-31T04:16:20;4.33;;;2.13;;
15287;SDS011;7745;48.708;9.026;2023-07-31T04:18:47;4.33;;;1.90;;
15287;SDS011;7745;48.708;9.026;2023-07-31T04:21:13;3.23;;;1.90;;
15287;SDS011;7745;48.708;9.026;2023-07-31T04:23:40;3.57;;;1.67;;
15287;SDS011;7745;48.708;9.026;2023-07-31T04:26:07;5.50;;;1.87;;
15287;SDS011;7745;48.708;9.026;2023-07-31T04:28:35;4.93;;;1.93;;
15287;SDS011;7745;48.708;9.026;2023-07-31T04:31:01;2.83;;;1.77;;
15287;SDS011;7745;48.708;9.026;2023-07-31T04:33:30;2.90;;;1.70;;
15287;SDS011;7745;48.708;9.026;2023-07-31T04:35:58;5.20;;;2.10;;
15287;SDS011;7745;48.708;9.026;2023-07-31T04:38:25;3.03;;;1.70;;
15287;SDS011;7745;48.708;9.026;2023-07-31T04:40:52;4.80;;;2.00;;
15287;SDS011;7745;48.708;9.026;2023-07-31T04:43:19;3.40;;;1.90;;
15287;SDS011;7745;48.708;9.026;2023-07-31T04:45:46;4.73;;;1.90;;
15287;SDS011;7745;48.708;9.026;2023-07-31T04:48:13;4.23;;;1.87;;
15287;SDS011;7745;48.708;9.026;2023-07-31T04:50:41;4.43;;;1.90;;
15287;SDS011;7745;48.708;9.026;2023-07-31T04:53:08;3.83;;;1.83;;
15287;SDS011;7745;48.708;9.026;2023-07-31T04:55:35;3.63;;;1.90;;
15287;SDS011;7745;48.708;9.026;2023-07-31T04:58:02;5.63;;;2.00;;
15287;SDS011;7745;48.708;9.026;2023-07-31T05:00:28;4.80;;;1.83;;
15287;SDS011;7745;48.708;9.026;2023-07-31T05:02:55;2.90;;;1.57;;
15287;SDS011;7745;48.708;9.026;2023-07-31T05:05:22;3.67;;;1.87;;
15287;SDS011;7745;48.708;9.026;2023-07-31T05:07:50;3.27;;;1.80;;
15287;SDS011;7745;48.708;9.026;2023-07-31T05:10:17;6.73;;;2.37;;
15287;SDS011;7745;48.708;9.026;2023-07-31T05:12:44;5.37;;;2.07;;
15287;SDS011;7745;48.708;9.026;2023-07-31T05:15:10;4.67;;;1.70;;
15287;SDS011;7745;48.708;9.026;2023-07-31T05:17:37;2.47;;;1.70;;
15287;SDS011;7745;48.708;9.026;2023-07-31T05:20:04;5.00;;;2.00;;
15287;SDS011;7745;48.708;9.026;2023-07-31T05:22:32;2.97;;;1.60;;
15287;SDS011;7745;48.708;9.026;2023-07-31T05:25:00;5.50;;;2.03;;
15287;SDS011;7745;48.708;9.026;2023-07-31T05:27:30;3.40;;;1.70;;
15287;SDS011;7745;48.708;9.026;2023-07-31T05:29:57;4.73;;;2.00;;
15287;SDS011;7745;48.708;9.026;2023-07-31T05:32:24;4.93;;;1.80;;
15287;SDS011;7745;48.708;9.026;2023-07-31T05:34:51;3.20;;;2.00;;
15287;SDS011;7745;48.708;9.026;2023-07-31T05:37:18;3.37;;;1.60;;
15287;SDS011;7745;48.708;9.026;2023-07-31T05:39:45;4.47;;;1.70;;
15287;SDS011;7745;48.708;9.026;2023-07-31T05:42:13;3.30;;;1.53;;
15287;SDS011;7745;48.708;9.026;2023-07-31T05:44:40;3.33;;;1.77;;
15287;SDS011;7745;48.708;9.026;2023-07-31T05:47:07;2.83;;;1.63;;
15287;SDS011;7745;48.708;9.026;2023-07-31T05:49:33;4.90;;;1.87;;
15287;SDS011;7745;48.708;9.026;2023-07-31T05:52:00;3.80;;;1.80;;
15287;SDS011;7745;48.708;9.026;2023-07-31T05:54:27;4.27;;;1.90;;
15287;SDS011;7745;48.708;9.026;2023-07-31T05:56:54;6.43;;;2.30;;
15287;SDS011;7745;48.708;9.026;2023-07-31T05:59:22;3.37;;;2.07;;
15287;SDS011;7745;48.708;9.026;2023-07-31T06:01:49;4.63;;;1.67;;
15287;SDS011;7745;48.708;9.026;2023-07-31T06:04:15;6.03;;;2.00;;
15287;SDS011;7745;48.708;9.026;2023-07-31T06:06:42;5.63;;;1.90;;
15287;SDS011;7745;48.708;9.026;2023-07-31T06:09:09;6.07;;;1.60;;
15287;SDS011;7745;48.708;9.026;2023-07-31T06:11:36;6.07;;;1.90;;
15287;SDS011;7745;48.708;9.026;2023-07-31T06:14:03;5.70;;;2.07;;
15287;SDS011;7745;48.708;9.026;2023-07-31T06:16:31;2.53;;;1.60;;
15287;SDS011;7745;48.708;9.026;2023-07-31T06:18:58;4.27;;;2.00;;
15287;SDS011;7745;48.708;9.026;2023-07-31T06:21:25;3.53;;;1.80;;
15287;SDS011;7745;48.708;9.026;2023-07-31T06:23:52;3.50;;;1.80;;
15287;SDS011;7745;48.708;9.026;2023-07-31T06:26:19;5.40;;;1.70;;
15287;SDS011;7745;48.708;9.026;2023-07-31T06:28:45;3.97;;;1.87;;
15287;SDS011;7745;48.708;9.026;2023-07-31T06:31:12;4.57;;;1.77;;
15287;SDS011;7745;48.708;9.026;2023-07-31T06:33:40;5.43;;;1.90;;
15287;SDS011;7745;48.708;9.026;2023-07-31T06:36:07;4.23;;;1.90;;
15287;SDS011;7745;48.708;9.026;2023-07-31T06:38:37;4.67;;;1.90;;
15287;SDS011;7745;48.708;9.026;2023-07-31T06:41:04;7.80;;;1.73;;
15287;SDS011;7745;48.708;9.026;2023-07-31T06:43:31;6.53;;;1.93;;
15287;SDS011;7745;48.708;9.026;2023-07-31T06:45:57;3.63;;;1.60;;
15287;SDS011;7745;48.708;9.026;2023-07-31T06:48:26;3.83;;;1.47;;
15287;SDS011;7745;48.708;9.026;2023-07-31T06:50:54;7.33;;;1.93;;
15287;SDS011;7745;48.708;9.026;2023-07-31T06:53:20;4.77;;;1.50;;
15287;SDS011;7745;48.708;9.026;2023-07-31T06:55:47;3.67;;;1.37;;
15287;SDS011;7745;48.708;9.026;2023-07-31T07:00:53;3.70;;;1.50;;
15287;SDS011;7745;48.708;9.026;2023-07-31T07:03:25;4.63;;;1.80;;
15287;SDS011;7745;48.708;9.026;2023-07-31T07:05:53;3.87;;;1.53;;
15287;SDS011;7745;48.708;9.026;2023-07-31T07:08:20;3.30;;;1.70;;
15287;SDS011;7745;48.708;9.026;2023-07-31T07:10:47;4.40;;;2.27;;
15287;SDS011;7745;48.708;9.026;2023-07-31T07:13:14;6.93;;;2.30;;
15287;SDS011;7745;48.708;9.026;2023-07-31T07:15:41;5.57;;;1.73;;
15287;SDS011;7745;48.708;9.026;2023-07-31T07:18:08;4.03;;;1.73;;
15287;SDS011;7745;48.708;9.026;2023-07-31T07:20:35;5.40;;;1.90;;
15287;SDS011;7745;48.708;9.026;2023-07-31T07:23:03;4.73;;;1.70;;
15287;SDS011;7745;48.708;9.026;2023-07-31T07:25:30;6.67;;;2.30;;
15287;SDS011;7745;48.708;9.026;2023-07-31T07:27:57;6.07;;;1.83;;
15287;SDS011;7745;48.708;9.026;2023-07-31T07:30:24;4.87;;;1.77;;
15287;SDS011;7745;48.708;9.026;2023-07-31T07:32:52;5.23;;;1.70;;
15287;SDS011;7745;48.708;9.026;2023-07-31T07:35:19;4.03;;;1.67;;
15287;SDS011;7745;48.708;9.026;2023-07-31T07:37:47;4.43;;;1.80;;
15287;SDS011;7745;48.708;9.026;2023-07-31T07:40:17;4.83;;;2.10;;
15287;SDS011;7745;48.708;9.026;2023-07-31T07:42:44;5.90;;;1.60;;
15287;SDS011;7745;48.708;9.026;2023-07-31T07:45:11;2.43;;;1.50;;
15287;SDS011;7745;48.708;9.026;2023-07-31T07:47:40;6.47;;;1.90;;
15287;SDS011;7745;48.708;9.026;2023-07-31T07:50:07;5.47;;;1.65;;
15287;SDS011;7745;48.708;9.026;2023-07-31T07:52:34;6.25;;;2.10;;
15287;SDS011;7745;48.708;9.026;2023-07-31T07:55:01;6.97;;;1.92;;
15287;SDS011;7745;48.708;9.026;2023-07-31T07:57:30;3.63;;;1.90;;
15287;SDS011;7745;48.708;9.026;2023-07-31T07:59:56;4.55;;;1.52;;
15287;SDS011;7745;48.708;9.026;2023-07-31T08:02:23;5.82;;;1.95;;
15287;SDS011;7745;48.708;9.026;2023-07-31T08:04:50;3.30;;;1.60;;
15287;SDS011;7745;48.708;9.026;2023-07-31T08:07:17;5.07;;;1.60;;
15287;SDS011;7745;48.708;9.026;2023-07-31T08:09:44;5.63;;;1.77;;
15287;SDS011;7745;48.708;9.026;2023-07-31T08:12:16;4.50;;;1.88;;
15287;SDS011;7745;48.708;9.026;2023-07-31T08:14:49;4.85;;;2.10;;
15287;SDS011;7745;48.708;9.026;2023-07-31T08:17:25;3.95;;;1.95;;
15287;SDS011;7745;48.708;9.026;2023-07-31T08:19:52;3.53;;;1.83;;
15287;SDS011;7745;48.708;9.026;2023-07-31T08:22:18;3.87;;;1.73;;
15287;SDS011;7745;48.708;9.026;2023-07-31T08:24:45;4.77;;;2.00;;
15287;SDS011;7745;48.708;9.026;2023-07-31T08:27:12;5.53;;;2.20;;
15287;SDS011;7745;48.708;9.026;2023-07-31T08:29:40;6.93;;;2.03;;
15287;SDS011;7745;48.708;9.026;2023-07-31T08:32:11;4.80;;;1.52;;
15287;SDS011;7745;48.708;9.026;2023-07-31T08:34:38;4.85;;;2.20;;
15287;SDS011;7745;48.708;9.026;2023-07-31T08:37:06;2.85;;;1.67;;
15287;SDS011;7745;48.708;9.026;2023-07-31T08:39:50;3.97;;;1.90;;
15287;SDS011;7745;48.708;9.026;2023-07-31T08:42:23;4.93;;;2.13;;
15287;SDS011;7745;48.708;9.026;2023-07-31T08:44:51;3.90;;;1.80;;
15287;SDS011;7745;48.708;9.026;2023-07-31T08:47:21;6.10;;;2.10;;
15287;SDS011;7745;48.708;9.026;2023-07-31T08:49:48;8.25;;;2.08;;
15287;SDS011;7745;48.708;9.026;2023-07-31T08:52:19;4.35;;;1.88;;
15287;SDS011;7745;48.708;9.026;2023-07-31T08:54:46;3.58;;;1.73;;
15287;SDS011;7745;48.708;9.026;2023-07-31T08:57:12;4.60;;;2.05;;
15287;SDS011;7745;48.708;9.026;2023-07-31T08:59:40;5.22;;;1.80;;
15287;SDS011;7745;48.708;9.026;2023-07-31T09:02:09;4.13;;;2.03;;
15287;SDS011;7745;48.708;9.026;2023-07-31T09:04:41;6.93;;;2.20;;
15287;SDS011;7745;48.708;9.026;2023-07-31T09:07:07;6.88;;;2.25;;
15287;SDS011;7745;48.708;9.026;2023-07-31T09:09:38;4.47;;;1.73;;
15287;SDS011;7745;48.708;9.026;2023-07-31T09:12:05;5.65;;;2.47;;
15287;SDS011;7745;48.708;9.026;2023-07-31T09:14:33;5.80;;;1.80;;
15287;SDS011;7745;48.708;9.026;2023-07-31T09:17:01;5.72;;;2.35;;
15287;SDS011;7745;48.708;9.026;2023-07-31T09:19:28;4.18;;;1.60;;
15287;SDS011;7745;48.708;9.026;2023-07-31T09:22:04;4.30;;;2.00;;
15287;SDS011;7745;48.708;9.026;2023-07-31T09:24:31;4.95;;;2.20;;
15287;SDS011;7745;48.708;9.026;2023-07-31T09:26:59;4.90;;;1.75;;
15287;SDS011;7745;48.708;9.026;2023-07-31T09:29:27;4.28;;;2.30;;
15287;SDS011;7745;48.708;9.026;2023-07-31T09:32:22;4.55;;;2.30;;
15287;SDS011;7745;48.708;9.026;2023-07-31T09:35:00;4.25;;;2.22;;
15287;SDS011;7745;48.708;9.026;2023-07-31T09:37:30;3.90;;;2.63;;
15287;SDS011;7745;48.708;9.026;2023-07-31T09:39:57;4.95;;;2.60;;
15287;SDS011;7745;48.708;9.026;2023-07-31T09:42:25;4.38;;;2.20;;
15287;SDS011;7745;48.708;9.026;2023-07-31T09:44:53;3.15;;;2.03;;
15287;SDS011;7745;48.708;9.026;2023-07-31T09:47:21;5.68;;;2.60;;
15287;SDS011;7745;48.708;9.026;2023-07-31T09:49:49;5.22;;;2.28;;
15287;SDS011;7745;48.708;9.026;2023-07-31T09:52:16;4.15;;;2.05;;
15287;SDS011;7745;48.708;9.026;2023-07-31T09:54:44;4.63;;;2.28;;
15287;SDS011;7745;48.708;9.026;2023-07-31T09:57:11;6.88;;;2.20;;
15287;SDS011;7745;48.708;9.026;2023-07-31T09:59:42;6.60;;;2.10;;
15287;SDS011;7745;48.708;9.026;2023-07-31T10:02:15;3.88;;;2.10;;
15287;SDS011;7745;48.708;9.026;2023-07-31T10:04:47;4.80;;;2.20;;
15287;SDS011;7745;48.708;9.026;2023-07-31T10:07:17;5.38;;;2.10;;
15287;SDS011;7745;48.708;9.026;2023-07-31T10:09:46;7.05;;;2.40;;
15287;SDS011;7745;48.708;9.026;2023-07-31T10:12:17;4.60;;;2.30;;
15287;SDS011;7745;48.708;9.026;2023-07-31T10:14:48;5.10;;;2.17;;
15287;SDS011;7745;48.708;9.026;2023-07-31T10:17:16;6.82;;;2.45;;
15287;SDS011;7745;48.708;9.026;2023-07-31T10:19:50;4.18;;;2.45;;
15287;SDS011;7745;48.708;9.026;2023-07-31T10:22:18;6.07;;;2.38;;
15287;SDS011;7745;48.708;9.026;2023-07-31T10:24:51;10.40;;;2.90;;
15287;SDS011;7745;48.708;9.026;2023-07-31T10:27:23;3.85;;;2.13;;
15287;SDS011;7745;48.708;9.026;2023-07-31T10:29:50;5.50;;;2.30;;
15287;SDS011;7745;48.708;9.026;2023-07-31T10:32:19;4.22;;;2.25;;
15287;SDS011;7745;48.708;9.026;2023-07-31T10:34:49;5.35;;;2.30;;
15287;SDS011;7745;48.708;9.026;2023-07-31T10:37:21;4.90;;;2.15;;
15287;SDS011;7745;48.708;9.026;2023-07-31T10:40:00;3.80;;;1.70;;
15287;SDS011;7745;48.708;9.026;2023-07-31T10:42:31;6.57;;;2.10;;
15287;SDS011;7745;48.708;9.026;2023-07-31T10:45:04;5.65;;;2.65;;
15287;SDS011;7745;48.708;9.026;2023-07-31T10:47:38;4.93;;;2.30;;
15287;SDS011;7745;48.708;9.026;2023-07-31T10:50:16;5.70;;;2.08;;
15287;SDS011;7745;48.708;9.026;2023-07-31T10:52:53;4.93;;;1.98;;
15287;SDS011;7745;48.708;9.026;2023-07-31T10:55:40;4.05;;;2.20;;
15287;SDS011;7745;48.708;9.026;2023-07-31T10:58:31;5.75;;;2.60;;
15287;SDS011;7745;48.708;9.026;2023-07-31T11:01:16;7.75;;;2.60;;
15287;SDS011;7745;48.708;9.026;2023-07-31T11:03:50;3.45;;;2.03;;
15287;SDS011;7745;48.708;9.026;2023-07-31T11:06:29;8.00;;;2.67;;
15287;SDS011;7745;48.708;9.026;2023-07-31T11:08:59;6.32;;;2.65;;
15287;SDS011;7745;48.708;9.026;2023-07-31T11:11:32;6.07;;;2.50;;
15287;SDS011;7745;48.708;9.026;2023-07-31T11:17:37;5.22;;;2.13;;
15287;SDS011;7745;48.708;9.026;2023-07-31T11:20:18;6.32;;;2.30;;
15287;SDS011;7745;48.708;9.026;2023-07-31T11:23:06;5.93;;;2.20;;
15287;SDS011;7745;48.708;9.026;2023-07-31T11:25:38;4.28;;;2.20;;
15287;SDS011;7745;48.708;9.026;2023-07-31T11:35:47;5.20;;;2.50;;
15287;SDS011;7745;48.708;9.026;2023-07-31T11:53:10;5.50;;;2.00;;
15287;SDS011;7745;48.708;9.026;2023-07-31T12:02:05;8.10;;;2.15;;
15287;SDS011;7745;48.708;9.026;2023-07-31T12:05:26;4.25;;;2.28;;
15287;SDS011;7745;48.708;9.026;2023-07-31T12:07:59;4.50;;;2.78;;
15287;SDS011;7745;48.708;9.026;2023-07-31T12:10:41;5.00;;;2.50;;
15287;SDS011;7745;48.708;9.026;2023-07-31T12:13:12;5.60;;;2.80;;
15287;SDS011;7745;48.708;9.026;2023-07-31T12:16:17;6.35;;;3.10;;
15287;SDS011;7745;48.708;9.026;2023-07-31T12:19:03;6.45;;;2.80;;
15287;SDS011;7745;48.708;9.026;2023-07-31T12:21:48;5.78;;;2.88;;
15287;SDS011;7745;48.708;9.026;2023-07-31T12:24:29;4.95;;;2.83;;
15287;SDS011;7745;48.708;9.026;2023-07-31T12:29:00;6.65;;;2.70;;
15287;SDS011;7745;48.708;9.026;2023-07-31T12:30:12;5.68;;;2.65;;
15287;SDS011;7745;48.708;9.026;2023-07-31T12:36:28;4.05;;;2.35;;
15287;SDS011;7745;48.708;9.026;2023-07-31T12:39:22;8.73;;;3.00;;
15287;SDS011;7745;48.708;9.026;2023-07-31T12:45:30;3.50;;;2.20;;
15287;SDS011;7745;48.708;9.026;2023-07-31T12:48:13;7.05;;;2.70;;
15287;SDS011;7745;48.708;9.026;2023-07-31T12:50:51;5.07;;;2.88;;
15287;SDS011;7745;48.708;9.026;2023-07-31T12:54:00;6.20;;;2.53;;
15287;SDS011;7745;48.708;9.026;2023-07-31T13:00:02;4.80;;;2.50;;
15287;SDS011;7745;48.708;9.026;2023-07-31T13:02:57;3.58;;;2.40;;
15287;SDS011;7745;48.708;9.026;2023-07-31T13:05:44;4.40;;;2.70;;
15287;SDS011;7745;48.708;9.026;2023-07-31T13:08:25;3.75;;;2.50;;
15287;SDS011;7745;48.708;9.026;2023-07-31T13:11:06;3.88;;;2.08;;
15287;SDS011;7745;48.708;9.026;2023-07-31T13:13:48;4.85;;;2.53;;
15287;SDS011;7745;48.708;9.026;2023-07-31T13:16:40;4.38;;;2.50;;
15287;SDS011;7745;48.708;9.026;2023-07-31T13:19:26;5.03;;;2.42;;
15287;SDS011;7745;48.708;9.026;2023-07-31T13:22:30;5.05;;;2.35;;
15287;SDS011;7745;48.708;9.026;2023-07-31T13:25:21;5.63;;;2.70;;
15287;SDS011;7745;48.708;9.026;2023-07-31T13:27:57;4.35;;;2.28;;
15287;SDS011;7745;48.708;9.026;2023-07-31T13:30:50;5.68;;;2.42;;
15287;SDS011;7745;48.708;9.026;2023-07-31T13:33:42;5.88;;;2.35;;
15287;SDS011;7745;48.708;9.026;2023-07-31T13:36:54;3.67;;;2.03;;
15287;SDS011;7745;48.708;9.026;2023-07-31T13:39:38;5.55;;;2.40;;
15287;SDS011;7745;48.708;9.026;2023-07-31T13:42:16;4.05;;;2.50;;
15287;SDS011;7745;48.708;9.026;2023-07-31T13:45:00;5.47;;;2.50;;
15287;SDS011;7745;48.708;9.026;2023-07-31T13:51:06;5.35;;;2.65;;
15287;SDS011;7745;48.708;9.026;2023-07-31T13:57:15;5.03;;;2.50;;
15287;SDS011;7745;48.708;9.026;2023-07-31T13:59:57;4.80;;;2.17;;
15287;SDS011;7745;48.708;9.026;2023-07-31T14:06:58;4.43;;;2.13;;
15287;SDS011;7745;48.708;9.026;2023-07-31T14:09:32;4.55;;;2.20;;
15287;SDS011;7745;48.708;9.026;2023-07-31T14:12:05;8.15;;;2.67;;
15287;SDS011;7745;48.708;9.026;2023-07-31T14:14:44;4.30;;;2.10;;
15287;SDS011;7745;48.708;9.026;2023-07-31T14:17:51;5.40;;;2.70;;
15287;SDS011;7745;48.708;9.026;2023-07-31T14:20:55;6.43;;;2.42;;
15287;SDS011;7745;48.708;9.026;2023-07-31T14:24:03;5.00;;;2.35;;
15287;SDS011;7745;48.708;9.026;2023-07-31T14:27:08;3.92;;;2.60;;
15287;SDS011;7745;48.708;9.026;2023-07-31T14:34:08;3.90;;;2.33;;
15287;SDS011;7745;48.708;9.026;2023-07-31T14:36:36;5.75;;;2.55;;
15287;SDS011;7745;48.708;9.026;2023-07-31T14:42:43;4.43;;;2.13;;
15287;SDS011;7745;48.708;9.026;2023-07-31T14:45:40;4.85;;;2.42;;
15287;SDS011;7745;48.708;9.026;2023-07-31T14:48:54;5.53;;;2.33;;
15287;SDS011;7745;48.708;9.026;2023-07-31T14:54:42;3.53;;;2.25;;
15287;SDS011;7745;48.708;9.026;2023-07-31T14:57:43;3.97;;;2.20;;
15287;SDS011;7745;48.708;9.026;2023-07-31T15:00:53;3.53;;;2.20;;
15287;SDS011;7745;48.708;9.026;2023-07-31T15:04:24;4.07;;;2.25;;
15287;SDS011;7745;48.708;9.026;2023-07-31T15:07:27;3.40;;;2.20;;
15287;SDS011;7745;48.708;9.026;2023-07-31T15:13:55;4.55;;;2.75;;
15287;SDS011;7745;48.708;9.026;2023-07-31T15:16:33;5.82;;;2.67;;
15287;SDS011;7745;48.708;9.026;2023-07-31T15:19:05;4.55;;;2.45;;
15287;SDS011;7745;48.708;9.026;2023-07-31T15:21:38;2.85;;;2.10;;
15287;SDS011;7745;48.708;9.026;2023-07-31T15:24:24;5.47;;;2.47;;
15287;SDS011;7745;48.708;9.026;2023-07-31T15:27:01;4.28;;;2.63;;
15287;SDS011;7745;48.708;9.026;2023-07-31T15:32:48;3.58;;;2.28;;
15287;SDS011;7745;48.708;9.026;2023-07-31T15:35:37;4.53;;;2.60;;
15287;SDS011;7745;48.708;9.026;2023-07-31T15:38:04;5.15;;;2.60;;
15287;SDS011;7745;48.708;9.026;2023-07-31T15:40:31;3.42;;;2.10;;
15287;SDS011;7745;48.708;9.026;2023-07-31T15:43:04;5.32;;;2.33;;
15287;SDS011;7745;48.708;9.026;2023-07-31T15:45:37;4.03;;;2.20;;
15287;SDS011;7745;48.708;9.026;2023-07-31T15:48:11;3.42;;;2.13;;
15287;SDS011;7745;48.708;9.026;2023-07-31T15:50:54;4.03;;;2.38;;
15287;SDS011;7745;48.708;9.026;2023-07-31T15:53:42;5.30;;;2.50;;
15287;SDS011;7745;48.708;9.026;2023-07-31T15:56:28;5.43;;;2.53;;
15287;SDS011;7745;48.708;9.026;2023-07-31T15:59:32;4.07;;;2.50;;
15287;SDS011;7745;48.708;9.026;2023-07-31T16:02:27;3.92;;;2.55;;
15287;SDS011;7745;48.708;9.026;2023-07-31T16:05:00;3.67;;;2.60;;
15287;SDS011;7745;48.708;9.026;2023-07-31T16:07:30;7.15;;;2.50;;
15287;SDS011;7745;48.708;9.026;2023-07-31T16:10:02;3.03;;;2.13;;
15287;SDS011;7745;48.708;9.026;2023-07-31T16:12:39;5.50;;;2.13;;
15287;SDS011;7745;48.708;9.026;2023-07-31T16:15:13;5.35;;;2.30;;
15287;SDS011;7745;48.708;9.026;2023-07-31T16:17:57;3.00;;;2.13;;
15287;SDS011;7745;48.708;9.026;2023-07-31T16:20:25;3.15;;;2.25;;
15287;SDS011;7745;48.708;9.026;2023-07-31T16:22:56;4.80;;;2.20;;
15287;SDS011;7745;48.708;9.026;2023-07-31T16:25:28;4.32;;;2.28;;
15287;SDS011;7745;48.708;9.026;2023-07-31T16:28:11;4.57;;;2.40;;
15287;SDS011;7745;48.708;9.026;2023-07-31T16:30:53;4.55;;;2.33;;
15287;SDS011;7745;48.708;9.026;2023-07-31T16:33:21;4.63;;;2.67;;
15287;SDS011;7745;48.708;9.026;2023-07-31T16:35:48;5.28;;;2.42;;
15287;SDS011;7745;48.708;9.026;2023-07-31T16:38:15;5.25;;;2.72;;
15287;SDS011;7745;48.708;9.026;2023-07-31T16:40:42;6.22;;;2.78;;
15287;SDS011;7745;48.708;9.026;2023-07-31T16:43:09;5.35;;;2.45;;
15287;SDS011;7745;48.708;9.026;2023-07-31T16:45:36;5.88;;;3.00;;
15287;SDS011;7745;48.708;9.026;2023-07-31T16:48:03;4.80;;;2.50;;